Time;durP1;ratioP1;P1;durP2;ratioP2;P2;SDS_P1;SDS_P2;PMS_P1;PMS_P2;Temp;Humidity;BMP_temperature;BMP_pressure;BME280_temperature;BME280_humidity;BME280_pressure;Samples;Min_cycle;Max_cycle;Signal;HPM_P1;HPM_P2
2023/12/23 00:02:10;;;;;;;11.40;3.10;;;;;;;0.91;75.55;96293.97;106850;1264;71789;-39
2023/12/23 00:04:38;;;;;;;8.20;3.50;;;;;;;0.91;75.12;96288.19;107248;1257;66296;-38
2023/12/23 00:07:06;;;;;;;9.80;3.40;;;;;;;0.93;75.23;96285.23;107213;1257;71410;-39
2023/12/23 00:09:33;;;;;;;10.10;3.00;;;;;;;0.99;74.97;96285.18;107264;1256;60867;-38
2023/12/23 00:12:00;;;;;;;10.00;3.30;;;;;;;1.07;74.65;96281.20;107235;1257;60055;-38
2023/12/23 00:14:28;;;;;;;6.20;2.90;;;;;;;1.09;74.64;96284.04;107205;1257;72842;-39
2023/12/23 00:16:55;;;;;;;8.40;3.00;;;;;;;1.09;74.77;96283.66;107245;1257;67558;-39
2023/12/23 00:19:23;;;;;;;8.40;3.30;;;;;;;1.08;74.46;96286.08;107224;1257;71331;-38
2023/12/23 00:21:51;;;;;;;10.60;3.70;;;;;;;1.08;74.43;96284.55;107227;1258;59717;-39
2023/12/23 00:24:18;;;;;;;10.10;3.20;;;;;;;1.13;74.41;96288.02;107144;1257;59253;-39
2023/12/23 00:26:46;;;;;;;9.80;3.60;;;;;;;1.22;74.20;96297.07;107054;1258;72697;-40
2023/12/23 00:29:13;;;;;;;9.90;3.50;;;;;;;1.24;73.98;96294.41;107078;1257;67067;-39
2023/12/23 00:31:40;;;;;;;10.20;3.60;;;;;;;1.24;73.93;96296.25;107083;1257;71698;-40
2023/12/23 00:34:08;;;;;;;7.60;3.20;;;;;;;1.22;74.06;96294.31;107075;1259;60529;-39
2023/12/23 00:36:35;;;;;;;8.70;3.20;;;;;;;1.20;73.86;96295.92;107109;1257;60422;-40
2023/12/23 00:39:04;;;;;;;10.10;3.20;;;;;;;1.21;74.13;96291.80;107096;1257;73928;-39
2023/12/23 00:41:31;;;;;;;10.10;3.20;;;;;;;1.28;74.09;96299.23;107091;1263;67574;-40
2023/12/23 00:44:01;;;;;;;7.80;3.20;;;;;;;1.23;73.99;96290.76;107149;1260;71499;-40
2023/12/23 00:46:28;;;;;;;9.20;2.80;;;;;;;1.27;74.03;96297.09;107108;1262;60336;-39
2023/12/23 00:48:56;;;;;;;7.10;2.80;;;;;;;1.24;73.98;96297.61;107046;1257;60521;-40
2023/12/23 00:51:23;;;;;;;5.70;3.10;;;;;;;1.20;74.30;96299.49;107081;1258;73880;-39
2023/12/23 00:53:51;;;;;;;10.20;2.90;;;;;;;1.23;74.28;96300.58;107068;1257;67584;-39
2023/12/23 00:56:20;;;;;;;8.70;2.90;;;;;;;1.29;74.35;96300.38;107018;1258;71404;-40
2023/12/23 00:58:48;;;;;;;8.30;2.80;;;;;;;1.28;74.28;96303.27;107135;1258;60323;-40
2023/12/23 01:01:16;;;;;;;6.20;2.90;;;;;;;1.24;74.41;96300.98;107084;1257;60387;-40
2023/12/23 01:03:43;;;;;;;6.30;3.00;;;;;;;1.20;74.64;96302.02;107073;1257;73860;-40
2023/12/23 01:06:11;;;;;;;5.50;2.60;;;;;;;1.19;74.74;96300.56;107077;1257;66614;-39
2023/12/23 01:08:39;;;;;;;8.60;3.10;;;;;;;1.24;74.85;96299.59;107054;1257;72684;-40
2023/12/23 01:11:06;;;;;;;7.60;2.70;;;;;;;1.27;74.52;96297.63;107094;1260;60444;-40
2023/12/23 01:13:34;;;;;;;6.20;2.70;;;;;;;1.24;74.87;96291.05;107024;1257;59277;-40
2023/12/23 01:16:02;;;;;;;8.90;3.30;;;;;;;1.20;74.98;96291.42;107078;1257;73761;-40
2023/12/23 01:18:29;;;;;;;6.00;2.50;;;;;;;1.17;75.00;96291.47;107065;1262;67572;-40
2023/12/23 01:20:58;;;;;;;5.60;2.80;;;;;;;1.17;75.29;96291.00;107055;1261;72520;-40
2023/12/23 01:23:26;;;;;;;5.40;2.80;;;;;;;1.22;75.20;96293.40;107053;1257;60433;-40
2023/12/23 01:25:53;;;;;;;8.30;2.90;;;;;;;1.21;75.07;96295.99;107236;1256;60437;-40
2023/12/23 01:28:20;;;;;;;9.60;3.10;;;;;;;1.17;75.49;96296.50;107212;1257;73851;-40
2023/12/23 01:30:48;;;;;;;8.80;2.90;;;;;;;1.13;75.56;96294.88;107238;1257;67627;-40
2023/12/23 01:33:16;;;;;;;7.20;2.80;;;;;;;1.11;75.75;96293.34;107235;1258;73084;-40
2023/12/23 01:35:43;;;;;;;6.60;3.20;;;;;;;1.15;75.46;96292.91;107237;1257;60937;-40
2023/12/23 01:38:11;;;;;;;7.90;2.80;;;;;;;1.18;75.66;96287.96;107237;1257;60406;-40
2023/12/23 01:40:38;;;;;;;8.10;3.00;;;;;;;1.15;75.63;96294.58;107258;1257;73840;-40
2023/12/23 01:43:06;;;;;;;8.60;2.90;;;;;;;1.09;75.85;96290.58;107220;1256;66727;-40
2023/12/23 01:45:33;;;;;;;5.40;3.10;;;;;;;1.05;76.10;96294.60;107208;1257;70974;-40
2023/12/23 01:48:03;;;;;;;8.00;2.90;;;;;;;1.01;76.18;96293.80;107175;1259;61056;-40
2023/12/23 01:50:31;;;;;;;8.70;2.60;;;;;;;1.04;76.23;96290.55;107309;1257;60341;-39
2023/12/23 01:52:58;;;;;;;6.80;2.80;;;;;;;1.05;76.47;96288.88;107220;1257;73884;-40
2023/12/23 01:55:30;;;;;;;7.20;2.80;;;;;;;1.01;76.52;96282.84;107222;1257;66350;-40
2023/12/23 01:57:58;;;;;;;7.60;3.10;;;;;;;0.96;76.84;96279.38;107031;1257;71606;-40
2023/12/23 02:00:25;;;;;;;9.40;3.10;;;;;;;0.91;77.02;96276.52;107241;1257;60886;-40
2023/12/23 02:02:53;;;;;;;6.50;3.00;;;;;;;0.92;77.19;96277.98;107228;1257;60357;-40
2023/12/23 02:05:21;;;;;;;5.30;2.50;;;;;;;0.94;76.98;96273.04;107075;1263;72873;-40
2023/12/23 02:07:49;;;;;;;6.30;2.80;;;;;;;0.93;77.01;96277.21;107224;1257;67637;-40
2023/12/23 02:10:17;;;;;;;4.90;2.40;;;;;;;0.90;77.20;96276.98;107067;1257;71384;-39
2023/12/23 02:12:55;;;;;;;6.70;2.60;;;;;;;0.87;77.51;96277.17;107220;1257;60446;-40
2023/12/23 02:15:38;;;;;;;8.20;3.00;;;;;;;0.88;77.48;96275.73;107206;1257;59245;-39
2023/12/23 02:18:06;;;;;;;5.20;2.40;;;;;;;0.92;77.35;96271.41;107209;1260;73772;-37
2023/12/23 02:20:34;;;;;;;6.70;2.50;;;;;;;0.92;77.51;96272.50;107245;1257;66877;-37
2023/12/23 02:23:01;;;;;;;7.30;3.20;;;;;;;0.89;77.60;96271.32;107206;1257;72701;-39
2023/12/23 02:25:29;;;;;;;5.20;2.60;;;;;;;0.86;77.77;96264.91;107179;1257;61099;-40
2023/12/23 02:27:59;;;;;;;7.50;3.00;;;;;;;0.89;77.78;96264.78;107044;1257;60056;-40
2023/12/23 02:30:26;;;;;;;6.20;2.70;;;;;;;0.94;77.53;96266.17;107251;1257;73781;-40
2023/12/23 02:32:54;;;;;;;7.50;2.90;;;;;;;0.92;77.81;96264.95;107106;1256;66294;-40
2023/12/23 02:35:26;;;;;;;8.30;2.80;;;;;;;0.89;77.95;96264.31;107058;1257;70460;-40
2023/12/23 02:37:55;;;;;;;6.20;2.80;;;;;;;0.86;78.08;96262.94;107227;1260;60940;-40
2023/12/23 02:40:22;;;;;;;8.10;2.70;;;;;;;0.92;78.10;96260.52;107205;1257;60578;-40
2023/12/23 02:42:50;;;;;;;6.30;3.20;;;;;;;0.95;78.02;96261.92;107210;1257;73099;-40
2023/12/23 02:45:18;;;;;;;7.70;2.80;;;;;;;0.94;78.15;96263.52;107055;1257;66706;-40
2023/12/23 02:47:47;;;;;;;9.30;2.80;;;;;;;0.92;78.25;96264.02;107205;1257;72515;-40
2023/12/23 02:50:15;;;;;;;5.60;2.60;;;;;;;0.90;78.55;96262.71;107198;1263;60464;-39
2023/12/23 02:52:42;;;;;;;8.80;2.40;;;;;;;0.96;78.26;96265.97;107242;1257;60418;-40
2023/12/23 02:55:10;;;;;;;5.50;2.40;;;;;;;1.02;78.35;96271.25;107242;1257;73854;-40
2023/12/23 02:57:38;;;;;;;8.20;2.80;;;;;;;1.00;78.31;96276.60;107208;1257;66449;-40
2023/12/23 03:00:06;;;;;;;5.90;2.80;;;;;;;0.98;78.48;96276.41;107228;1257;71382;-40
2023/12/23 03:02:35;;;;;;;8.50;2.70;;;;;;;0.96;78.49;96273.98;107248;1257;60895;-39
2023/12/23 03:05:05;;;;;;;5.80;3.20;;;;;;;0.99;78.38;96271.70;107198;1256;59286;-39
2023/12/23 03:07:32;;;;;;;6.40;2.80;;;;;;;1.07;78.21;96274.04;107271;1257;72594;-40
2023/12/23 03:10:01;;;;;;;7.90;2.70;;;;;;;1.05;78.48;96274.64;107223;1256;66625;-39
2023/12/23 03:12:28;;;;;;;5.60;2.70;;;;;;;1.01;78.37;96280.55;107205;1257;72702;-40
2023/12/23 03:14:55;;;;;;;7.40;2.90;;;;;;;0.98;78.53;96282.95;107229;1257;60559;-40
2023/12/23 03:17:25;;;;;;;5.30;2.70;;;;;;;1.01;78.32;96280.63;107223;1257;60287;-40
2023/12/23 03:19:56;;;;;;;;;;;;;;;1.06;78.18;96284.02;107234;1257;72615;-40
2023/12/23 03:22:24;;;;;;;7.50;2.70;;;;;;;1.05;78.03;96283.40;107240;1257;66473;-40
2023/12/23 03:24:52;;;;;;;8.70;3.10;;;;;;;1.02;78.13;96284.13;107207;1262;72682;-40
2023/12/23 03:27:19;;;;;;;8.50;3.20;;;;;;;0.99;78.40;96285.95;107219;1257;60420;-40
2023/12/23 03:29:47;;;;;;;7.00;2.70;;;;;;;1.02;77.98;96285.35;107232;1256;60381;-40
2023/12/23 03:32:15;;;;;;;9.30;3.00;;;;;;;1.06;78.32;96280.73;107248;1257;72639;-40
2023/12/23 03:34:43;;;;;;;6.20;3.00;;;;;;;1.06;78.14;96285.92;107254;1257;66420;-40
2023/12/23 03:37:11;;;;;;;8.80;2.90;;;;;;;1.02;78.11;96283.05;107142;1263;72708;-40
2023/12/23 03:39:38;;;;;;;9.80;3.00;;;;;;;0.97;78.30;96285.32;107233;1257;60431;-40
2023/12/23 03:42:06;;;;;;;5.30;2.70;;;;;;;1.00;78.11;96286.11;107228;1257;60364;-40
2023/12/23 03:44:33;;;;;;;5.50;2.60;;;;;;;1.05;78.13;96291.70;107216;1257;73882;-40
2023/12/23 03:47:01;;;;;;;6.60;2.90;;;;;;;1.05;78.16;96291.33;107233;1256;66610;-40
2023/12/23 03:49:28;;;;;;;7.50;3.20;;;;;;;1.02;78.36;96290.84;107216;1257;72529;-40
2023/12/23 03:51:56;;;;;;;7.00;3.00;;;;;;;0.97;78.35;96286.61;107233;1256;59609;-40
2023/12/23 03:54:23;;;;;;;6.80;2.90;;;;;;;0.98;78.47;96286.70;107212;1260;59308;-39
2023/12/23 03:56:51;;;;;;;7.70;2.90;;;;;;;1.01;78.29;96294.11;107194;1262;72875;-40
2023/12/23 03:59:19;;;;;;;7.30;3.20;;;;;;;0.99;78.36;96296.54;107219;1257;66301;-40
2023/12/23 04:01:46;;;;;;;6.60;2.70;;;;;;;0.94;78.82;96302.91;107217;1258;72471;-40
2023/12/23 04:04:14;;;;;;;6.30;3.00;;;;;;;0.90;79.15;96307.98;107074;1257;60282;-40
2023/12/23 04:06:41;;;;;;;8.10;3.00;;;;;;;0.95;79.33;96305.35;107204;1255;60427;-39
2023/12/23 04:09:12;;;;;;;7.30;3.30;;;;;;;0.98;79.45;96307.80;106302;1256;1005780;-40
2023/12/23 04:11:40;;;;;;;7.50;3.50;;;;;;;0.93;80.00;96309.84;107189;1260;66939;-40
2023/12/23 04:14:07;;;;;;;7.60;3.20;;;;;;;0.86;80.23;96308.56;107237;1262;72420;-40
2023/12/23 04:16:38;;;;;;;7.60;3.50;;;;;;;0.79;80.92;96311.79;107209;1257;59580;-39
2023/12/23 04:19:06;;;;;;;5.50;2.70;;;;;;;0.80;81.10;96309.42;107309;1256;60283;-40
2023/12/23 04:21:34;;;;;;;7.50;3.30;;;;;;;0.82;81.16;96311.74;107051;1257;74351;-40
2023/12/23 04:24:01;;;;;;;6.90;3.40;;;;;;;0.77;81.66;96310.63;107063;1257;67700;-40
2023/12/23 04:26:30;;;;;;;8.60;3.50;;;;;;;0.71;82.01;96314.23;107180;1257;71467;-40
2023/12/23 04:28:58;;;;;;;9.90;3.50;;;;;;;0.67;82.12;96317.86;107208;1257;60834;-40
2023/12/23 04:31:25;;;;;;;9.80;3.40;;;;;;;0.70;82.24;96314.98;107046;1257;60304;-40
2023/12/23 04:33:53;;;;;;;6.70;2.80;;;;;;;0.75;82.01;96314.88;107233;1257;71604;-40
2023/12/23 04:36:24;;;;;;;8.60;3.00;;;;;;;0.75;81.95;96314.87;107220;1257;67953;-39
2023/12/23 04:38:52;;;;;;;9.10;3.40;;;;;;;0.72;82.14;96314.78;107206;1257;71445;-40
2023/12/23 04:41:20;;;;;;;6.40;3.20;;;;;;;0.70;82.07;96317.50;107202;1257;60305;-39
2023/12/23 04:43:48;;;;;;;8.80;3.20;;;;;;;0.69;82.07;96319.63;107220;1257;60326;-40
2023/12/23 04:46:16;;;;;;;8.20;3.40;;;;;;;0.71;81.79;96321.25;107235;1257;73794;-40
2023/12/23 04:48:44;;;;;;;7.40;3.30;;;;;;;0.70;81.95;96320.93;107071;1257;67608;-40
2023/12/23 04:51:11;;;;;;;11.40;3.80;;;;;;;0.66;82.25;96322.95;107242;1257;70905;-40
2023/12/23 04:53:39;;;;;;;6.80;3.30;;;;;;;0.62;82.31;96321.33;107016;1257;60869;-40
2023/12/23 04:56:07;;;;;;;7.70;3.10;;;;;;;0.65;82.11;96324.64;107218;1257;60362;-40
2023/12/23 04:58:35;;;;;;;7.80;3.10;;;;;;;0.72;82.16;96324.38;107123;1257;73735;-40
2023/12/23 05:01:03;;;;;;;6.70;3.10;;;;;;;0.72;82.29;96325.06;107223;1257;66419;-40
2023/12/23 05:03:34;;;;;;;12.80;3.50;;;;;;;0.70;82.07;96328.63;107319;1256;71494;-38
2023/12/23 05:06:01;;;;;;;7.80;3.00;;;;;;;0.68;82.08;96330.59;107195;1257;62170;-38
2023/12/23 05:08:29;;;;;;;9.60;3.40;;;;;;;0.71;81.87;96331.15;107177;1257;59358;-38
2023/12/23 05:10:57;;;;;;;8.80;3.30;;;;;;;0.76;81.70;96334.17;107204;1256;73848;-38
2023/12/23 05:13:24;;;;;;;12.20;4.10;;;;;;;0.76;81.37;96334.33;107062;1256;67890;-38
2023/12/23 05:15:51;;;;;;;10.60;3.70;;;;;;;0.74;81.62;96333.91;107209;1257;72705;-38
2023/12/23 05:18:19;;;;;;;8.80;3.60;;;;;;;0.73;81.40;96337.41;107213;1256;60607;-38
2023/12/23 05:20:48;;;;;;;9.00;3.90;;;;;;;0.76;81.35;96340.63;107291;1257;60243;-38
2023/12/23 05:23:16;;;;;;;8.90;3.40;;;;;;;0.81;81.13;96342.66;107207;1257;72564;-38
2023/12/23 05:25:45;;;;;;;8.30;3.50;;;;;;;0.81;80.89;96347.55;107255;1257;67543;-39
2023/12/23 05:28:12;;;;;;;10.40;3.70;;;;;;;0.77;80.77;96349.95;107073;1257;72778;-40
2023/12/23 05:30:40;;;;;;;10.40;4.00;;;;;;;0.75;80.99;96353.27;107153;1257;61348;-39
2023/12/23 05:33:07;;;;;;;8.10;3.70;;;;;;;0.80;80.82;96361.17;107238;1257;60341;-39
2023/12/23 05:35:35;;;;;;;8.40;3.60;;;;;;;0.87;80.41;96365.02;107237;1257;73875;-39
2023/12/23 05:38:02;;;;;;;11.20;3.90;;;;;;;0.87;80.32;96366.87;107258;1255;66642;-39
2023/12/23 05:40:31;;;;;;;11.70;3.70;;;;;;;0.84;80.22;96366.20;107200;1257;72454;-39
2023/12/23 05:42:59;;;;;;;6.90;3.50;;;;;;;0.81;80.12;96372.07;107209;1257;61418;-39
2023/12/23 05:45:27;;;;;;;10.10;4.30;;;;;;;0.84;80.16;96378.11;107266;1257;60281;-39
2023/12/23 05:47:54;;;;;;;10.10;3.70;;;;;;;0.89;79.96;96381.11;107251;1257;71588;-39
2023/12/23 05:50:22;;;;;;;8.00;3.60;;;;;;;0.87;79.88;96383.40;105731;1257;1003061;-39
2023/12/23 05:52:49;;;;;;;10.30;3.70;;;;;;;0.83;79.77;96385.27;107245;1257;72692;-39
2023/12/23 05:55:19;;;;;;;11.00;3.60;;;;;;;0.80;79.60;96386.08;107260;1257;60440;-39
2023/12/23 05:57:46;;;;;;;10.90;3.20;;;;;;;0.84;79.43;96383.52;107310;1257;60433;-39
2023/12/23 06:00:15;;;;;;;11.00;4.00;;;;;;;0.90;79.28;96388.60;107252;1256;73801;-39
2023/12/23 06:02:42;;;;;;;11.20;3.90;;;;;;;0.89;78.97;96390.56;107240;1257;66279;-39
2023/12/23 06:05:10;;;;;;;8.90;3.60;;;;;;;0.86;78.95;96391.77;107237;1257;71406;-39
2023/12/23 06:07:37;;;;;;;10.30;4.00;;;;;;;0.83;78.82;96392.95;107217;1257;60290;-39
2023/12/23 06:10:06;;;;;;;7.80;2.90;;;;;;;0.87;78.65;96392.45;107225;1257;60289;-39
2023/12/23 06:12:33;;;;;;;9.40;3.50;;;;;;;0.92;78.61;96395.09;107316;1257;73833;-39
2023/12/23 06:15:01;;;;;;;13.00;3.90;;;;;;;0.89;78.36;96391.57;107257;1257;66766;-39
2023/12/23 06:17:28;;;;;;;10.40;4.00;;;;;;;0.84;78.37;96401.89;107240;1257;70643;-39
2023/12/23 06:19:56;;;;;;;11.70;3.60;;;;;;;0.82;78.65;96407.73;107245;1257;60339;-39
2023/12/23 06:22:23;;;;;;;10.50;3.60;;;;;;;0.84;78.58;96407.14;107204;1257;60558;-39
2023/12/23 06:24:51;;;;;;;9.40;3.60;;;;;;;0.88;78.57;96411.59;107211;1257;73784;-39
2023/12/23 06:27:18;;;;;;;11.90;4.10;;;;;;;0.88;78.33;96413.96;107220;1257;67670;-39
2023/12/23 06:29:46;;;;;;;9.50;3.60;;;;;;;0.85;78.36;96419.42;107063;1263;72743;-39
2023/12/23 06:32:13;;;;;;;9.70;3.30;;;;;;;0.82;78.48;96421.67;107263;1257;60846;-39
2023/12/23 06:34:41;;;;;;;14.20;3.90;;;;;;;0.86;78.26;96424.00;107202;1257;60370;-39
2023/12/23 06:37:08;;;;;;;9.20;3.80;;;;;;;0.90;77.96;96425.41;107213;1257;73832;-39
2023/12/23 06:39:36;;;;;;;8.80;3.60;;;;;;;0.89;77.94;96433.39;107235;1257;66677;-39
2023/12/23 06:42:03;;;;;;;10.80;3.70;;;;;;;0.84;77.82;96432.89;107259;1257;71835;-39
2023/12/23 06:44:31;;;;;;;8.70;3.20;;;;;;;0.81;77.76;96441.39;107196;1256;60408;-38
2023/12/23 06:46:58;;;;;;;9.90;3.60;;;;;;;0.84;77.37;96434.34;107219;1256;60399;-39
2023/12/23 06:49:27;;;;;;;11.20;4.40;;;;;;;0.87;77.23;96442.60;107236;1257;73773;-39
2023/12/23 06:51:55;;;;;;;12.30;4.10;;;;;;;0.84;77.35;96449.05;107258;1257;66412;-38
2023/12/23 06:54:24;;;;;;;10.80;4.10;;;;;;;0.81;77.26;96455.13;107215;1258;71356;-38
2023/12/23 06:56:52;;;;;;;11.90;4.30;;;;;;;0.80;77.31;96458.38;107199;1257;60482;-39
2023/12/23 06:59:19;;;;;;;11.20;3.90;;;;;;;0.87;77.21;96465.69;107233;1256;60984;-39
2023/12/23 07:01:47;;;;;;;12.70;3.90;;;;;;;0.90;76.83;96463.05;107246;1256;73514;-39
2023/12/23 07:04:14;;;;;;;17.60;4.30;;;;;;;0.89;76.95;96466.70;107266;1257;66317;-38
2023/12/23 07:06:42;;;;;;;12.00;3.90;;;;;;;0.87;76.92;96471.02;107218;1257;71432;-39
2023/12/23 07:09:09;;;;;;;13.70;3.90;;;;;;;0.86;76.68;96469.27;107246;1257;60847;-39
2023/12/23 07:11:37;;;;;;;9.10;3.90;;;;;;;0.91;76.82;96471.89;107221;1256;60470;-38
2023/12/23 07:14:04;;;;;;;9.50;3.70;;;;;;;0.98;76.57;96477.75;107278;1256;72657;-38
2023/12/23 07:16:32;;;;;;;9.40;3.20;;;;;;;0.98;76.65;96480.48;107261;1257;67904;-39
2023/12/23 07:18:59;;;;;;;9.30;3.60;;;;;;;0.95;76.71;96482.46;107241;1256;72726;-38
2023/12/23 07:21:27;;;;;;;11.00;4.10;;;;;;;0.93;76.91;96486.84;107230;1257;60444;-38
2023/12/23 07:23:55;;;;;;;10.90;3.80;;;;;;;0.92;76.75;96487.30;107263;1257;60344;-39
2023/12/23 07:26:22;;;;;;;10.70;3.30;;;;;;;0.97;76.56;96491.46;107278;1256;72253;-39
2023/12/23 07:28:50;;;;;;;11.60;3.90;;;;;;;1.02;76.21;96495.09;107292;1257;67571;-39
2023/12/23 07:31:18;;;;;;;9.10;3.70;;;;;;;1.00;75.99;96490.64;107239;1257;72717;-39
2023/12/23 07:33:46;;;;;;;8.80;3.80;;;;;;;0.98;76.23;96489.11;107264;1257;60655;-38
2023/12/23 07:36:14;;;;;;;10.50;4.20;;;;;;;0.96;76.00;96490.48;107245;1256;60427;-38
2023/12/23 07:38:42;;;;;;;10.30;3.60;;;;;;;0.98;75.94;96493.67;107210;1261;73888;-39
2023/12/23 07:41:11;;;;;;;10.70;3.70;;;;;;;1.05;75.44;96489.63;107238;1257;67551;-38
2023/12/23 07:43:39;;;;;;;8.50;3.70;;;;;;;1.05;75.45;96491.77;107306;1256;72631;-39
2023/12/23 07:46:07;;;;;;;11.30;3.80;;;;;;;1.03;75.33;96495.63;107213;1257;60402;-38
2023/12/23 07:48:34;;;;;;;8.80;3.80;;;;;;;1.02;75.77;96504.53;107164;1262;60482;-39
2023/12/23 07:51:06;;;;;;;13.10;4.10;;;;;;;1.00;75.55;96501.02;107162;1257;73901;-39
2023/12/23 07:53:34;;;;;;;7.90;3.40;;;;;;;1.05;75.25;96505.95;107188;1257;67915;-38
2023/12/23 07:56:02;;;;;;;8.90;3.90;;;;;;;1.11;74.93;96508.30;107110;1259;71122;-39
2023/12/23 07:58:30;;;;;;;9.10;3.40;;;;;;;1.12;75.20;96510.05;107155;1257;60385;-39
2023/12/23 08:00:57;;;;;;;10.50;3.80;;;;;;;1.11;75.04;96513.26;107168;1257;60435;-39
2023/12/23 08:03:25;;;;;;;10.60;3.90;;;;;;;1.11;75.01;96510.81;107221;1257;73856;-39
2023/12/23 08:05:53;;;;;;;11.20;3.70;;;;;;;1.13;75.03;96511.74;107138;1257;67513;-39
2023/12/23 08:08:20;;;;;;;12.10;3.90;;;;;;;1.20;75.09;96513.58;107119;1257;71182;-38
2023/12/23 08:10:50;;;;;;;12.60;3.60;;;;;;;1.28;74.63;96509.06;107111;1259;60456;-38
2023/12/23 08:13:18;;;;;;;7.30;3.80;;;;;;;1.29;74.60;96511.44;107192;1256;60370;-38
2023/12/23 08:15:45;;;;;;;10.00;4.00;;;;;;;1.27;74.51;96512.18;107142;1257;73912;-39
2023/12/23 08:18:13;;;;;;;10.00;3.80;;;;;;;1.26;73.88;96510.86;107145;1257;67716;-39
2023/12/23 08:20:40;;;;;;;8.00;3.70;;;;;;;1.24;73.33;96510.56;107134;1257;72459;-39
2023/12/23 08:23:08;;;;;;;10.60;3.80;;;;;;;1.32;73.45;96512.14;107163;1260;60630;-39
2023/12/23 08:25:35;;;;;;;13.50;4.30;;;;;;;1.44;72.67;96503.77;107133;1262;60304;-39
2023/12/23 08:28:03;;;;;;;10.00;4.00;;;;;;;1.52;71.96;96512.24;107142;1257;73874;-39
2023/12/23 08:30:31;;;;;;;14.50;3.40;;;;;;;1.57;71.70;96513.65;107212;1257;65318;-39
2023/12/23 08:32:58;;;;;;;13.70;4.10;;;;;;;1.61;70.97;96518.95;107141;1257;72676;-39
2023/12/23 08:35:26;;;;;;;10.80;4.30;;;;;;;1.65;71.14;96515.32;107154;1257;60331;-39
2023/12/23 08:37:54;;;;;;;13.00;4.00;;;;;;;1.64;70.63;96510.73;107050;1257;96448;-39
2023/12/23 08:43:18;;;;;;;12.30;3.90;;;;;;;1.88;68.67;96519.68;104914;1282;600204;-39
2023/12/23 08:45:45;;;;;;;12.60;4.00;;;;;;;1.88;68.72;96513.97;106622;1266;59288;-38
2023/12/23 08:48:13;;;;;;;9.90;3.50;;;;;;;1.88;68.84;96511.67;106646;1266;62011;-39
2023/12/23 08:50:40;;;;;;;10.10;4.00;;;;;;;1.89;68.39;96513.05;106609;1266;70773;-39
2023/12/23 08:53:08;;;;;;;13.80;4.20;;;;;;;1.90;68.33;96515.79;105885;1266;1003505;-38
2023/12/23 08:55:36;;;;;;;9.80;3.60;;;;;;;1.95;68.17;96518.50;106587;1267;71413;-38
2023/12/23 08:58:03;;;;;;;10.30;3.70;;;;;;;2.04;67.70;96520.25;106625;1262;80872;-39
2023/12/23 09:00:31;;;;;;;11.50;4.30;;;;;;;2.07;67.39;96515.85;106716;1263;59134;-38
2023/12/23 09:02:59;;;;;;;9.30;3.80;;;;;;;2.07;67.40;96518.52;106699;1262;69985;-38
2023/12/23 09:05:26;;;;;;;11.20;4.40;;;;;;;2.03;67.05;96524.43;106726;1262;66723;-38
2023/12/23 09:07:54;;;;;;;10.10;3.80;;;;;;;1.98;67.19;96523.73;106731;1263;72549;-39
2023/12/23 09:10:22;;;;;;;10.60;3.80;;;;;;;1.90;67.13;96521.00;106750;1266;59644;-39
2023/12/23 09:12:50;;;;;;;8.10;3.40;;;;;;;1.87;67.48;96519.06;106768;1263;59286;-39
2023/12/23 09:15:17;;;;;;;11.40;3.90;;;;;;;1.91;67.18;96518.86;106772;1263;72963;-39
2023/12/23 09:17:45;;;;;;;12.00;4.20;;;;;;;1.89;67.15;96523.27;106746;1263;67931;-38
2023/12/23 09:20:13;;;;;;;8.00;3.50;;;;;;;1.85;67.36;96529.65;106772;1265;72497;-39
2023/12/23 09:22:41;;;;;;;10.00;4.10;;;;;;;1.80;67.30;96534.97;106767;1265;59662;-39
2023/12/23 09:25:09;;;;;;;9.40;3.80;;;;;;;1.77;67.63;96537.92;106029;1263;1002989;-39
2023/12/23 09:27:36;;;;;;;11.90;3.60;;;;;;;1.77;67.37;96535.09;106770;1263;73084;-39
2023/12/23 09:30:05;;;;;;;10.50;3.80;;;;;;;1.84;67.66;96529.58;106774;1264;66315;-39
2023/12/23 09:32:32;;;;;;;8.20;3.10;;;;;;;1.95;67.56;96525.23;106834;1264;72703;-39
2023/12/23 09:35:00;;;;;;;11.10;4.00;;;;;;;1.99;67.06;96521.83;107247;1257;59659;-39
2023/12/23 09:37:32;;;;;;;10.50;3.80;;;;;;;2.01;66.79;96525.34;107239;1256;59525;-39
2023/12/23 09:40:01;;;;;;;11.10;4.30;;;;;;;2.03;66.97;96528.41;107311;1256;73031;-39
2023/12/23 09:42:28;;;;;;;10.00;3.80;;;;;;;2.02;66.88;96521.61;107261;1257;67613;-39
2023/12/23 09:44:56;;;;;;;10.00;4.10;;;;;;;2.02;67.07;96529.40;107574;1253;72678;-38
2023/12/23 09:47:25;;;;;;;11.00;3.60;;;;;;;2.05;66.91;96532.61;107634;1253;59751;-39
2023/12/23 09:49:52;;;;;;;6.50;3.40;;;;;;;2.03;67.16;96537.04;107617;1253;59525;-39
2023/12/23 09:52:20;;;;;;;8.00;3.70;;;;;;;1.96;67.16;96540.95;107566;1253;71756;-39
2023/12/23 09:54:52;;;;;;;8.10;3.80;;;;;;;1.86;67.26;96538.13;107585;1253;67574;-39
2023/12/23 09:57:20;;;;;;;8.20;3.60;;;;;;;1.76;67.85;96536.69;107541;1253;71810;-39
2023/12/23 09:59:52;;;;;;;10.30;3.30;;;;;;;1.71;68.47;96534.66;107500;1253;60968;-39
2023/12/23 10:02:19;;;;;;;9.10;3.40;;;;;;;1.74;68.88;96530.64;107608;1253;59247;-39
2023/12/23 10:04:47;;;;;;;7.70;3.40;;;;;;;1.85;69.10;96526.61;107575;1253;73015;-38
2023/12/23 10:07:15;;;;;;;9.50;3.50;;;;;;;1.97;69.02;96522.11;107562;1253;67680;-39
2023/12/23 10:09:42;;;;;;;9.70;4.10;;;;;;;2.08;68.36;96519.20;107707;1253;72677;-38
2023/12/23 10:12:10;;;;;;;9.60;3.70;;;;;;;2.21;68.34;96515.69;107668;1254;59762;-39
2023/12/23 10:14:41;;;;;;;11.40;3.60;;;;;;;2.35;68.34;96519.29;107613;1253;59399;-39
2023/12/23 10:17:08;;;;;;;8.10;3.20;;;;;;;2.51;67.59;96518.59;107599;1253;71787;-39
2023/12/23 10:19:36;;;;;;;8.80;3.00;;;;;;;2.58;66.63;96510.44;107593;1253;66814;-39
2023/12/23 10:22:04;;;;;;;10.70;3.30;;;;;;;2.62;65.96;96518.95;107687;1254;71381;-39
2023/12/23 10:24:31;;;;;;;8.70;3.30;;;;;;;2.47;65.74;96520.72;107684;1253;59711;-39
2023/12/23 10:26:59;;;;;;;11.20;3.80;;;;;;;2.32;66.33;96523.16;107578;1253;59935;-40
2023/12/23 10:29:26;;;;;;;6.70;3.10;;;;;;;2.16;66.67;96525.81;107571;1253;73059;-39
2023/12/23 10:31:55;;;;;;;7.30;3.20;;;;;;;2.03;67.22;96530.70;107554;1257;67526;-38
2023/12/23 10:34:23;;;;;;;5.90;2.50;;;;;;;1.97;67.85;96534.02;107685;1254;72707;-39
2023/12/23 10:36:50;;;;;;;7.80;3.40;;;;;;;1.89;68.78;96534.58;107463;1253;59630;-38
2023/12/23 10:39:26;;;;;;;8.90;3.30;;;;;;;1.76;69.97;96535.32;107504;1252;59593;-38
2023/12/23 10:41:58;;;;;;;11.30;3.80;;;;;;;1.63;70.69;96538.73;107561;1253;71775;-39
2023/12/23 10:44:25;;;;;;;12.80;3.70;;;;;;;1.51;70.80;96546.79;107583;1252;68062;-39
2023/12/23 10:46:53;;;;;;;9.00;3.20;;;;;;;1.47;71.23;96547.98;107468;1258;71090;-39
2023/12/23 10:49:21;;;;;;;10.40;3.50;;;;;;;1.53;71.37;96547.34;107538;1253;59719;-39
2023/12/23 10:51:49;;;;;;;8.70;3.40;;;;;;;1.52;71.09;96555.71;107615;1253;59119;-38
2023/12/23 10:54:18;;;;;;;8.20;3.20;;;;;;;1.49;71.64;96554.17;107525;1257;72209;-39
2023/12/23 10:56:45;;;;;;;8.90;3.50;;;;;;;1.47;71.50;96556.52;107639;1252;67579;-39
2023/12/23 10:59:13;;;;;;;8.70;3.30;;;;;;;1.44;71.72;96553.89;107448;1253;72673;-38
2023/12/23 11:01:40;;;;;;;6.60;3.50;;;;;;;1.46;72.02;96557.73;107625;1253;59811;-39
2023/12/23 11:04:08;;;;;;;9.00;3.50;;;;;;;1.49;72.09;96552.64;107441;1253;59584;-38
2023/12/23 11:06:38;;;;;;;10.40;3.80;;;;;;;1.48;72.58;96556.98;107643;1252;73067;-39
2023/12/23 11:09:05;;;;;;;8.00;3.90;;;;;;;1.41;72.98;96568.36;107722;1252;66285;-38
2023/12/23 11:11:33;;;;;;;10.40;4.10;;;;;;;1.29;74.34;96568.39;107483;1257;72468;-39
2023/12/23 11:14:00;;;;;;;11.70;4.10;;;;;;;1.21;75.16;96570.15;107485;1252;59935;-39
2023/12/23 11:16:29;;;;;;;7.40;3.20;;;;;;;1.16;76.28;96567.36;107640;1253;60360;-39
2023/12/23 11:18:56;;;;;;;8.30;3.70;;;;;;;1.08;76.92;96570.70;107660;1253;72974;-39
2023/12/23 11:21:24;;;;;;;11.40;3.40;;;;;;;1.01;77.62;96574.05;107513;1252;67557;-39
2023/12/23 11:23:51;;;;;;;10.70;3.90;;;;;;;0.93;78.44;96580.58;107593;1252;70472;-39
2023/12/23 11:26:39;;;;;;;10.30;4.20;;;;;;;0.96;78.79;96584.43;107545;1251;60918;-39
2023/12/23 11:29:08;;;;;;;9.50;4.00;;;;;;;1.01;79.30;96584.27;107563;1251;59256;-38
2023/12/23 11:31:35;;;;;;;11.50;4.10;;;;;;;1.00;79.52;96586.23;107607;1252;73110;-38
2023/12/23 11:34:17;;;;;;;8.60;4.00;;;;;;;0.99;79.97;96584.84;107501;1252;66384;-38
2023/12/23 11:36:45;;;;;;;8.00;4.60;;;;;;;0.99;80.26;96586.14;107642;1252;71324;-38
2023/12/23 11:39:17;;;;;;;11.00;4.40;;;;;;;1.07;80.22;96584.87;107570;1252;60870;-39